sensor_id;sensor_type;location;lat;lon;timestamp;P1;durP1;ratioP1;P2;durP2;ratioP2
52586;SDS011;38480;52.724;6.436;2022-10-01T00:02:21;31.33;;;19.37;;
52586;SDS011;38480;52.724;6.436;2022-10-01T00:04:47;27.43;;;16.17;;
52586;SDS011;38480;52.724;6.436;2022-10-01T00:07:14;27.10;;;18.27;;
52586;SDS011;38480;52.724;6.436;2022-10-01T00:09:41;22.47;;;15.33;;
52586;SDS011;38480;52.724;6.436;2022-10-01T00:12:07;20.53;;;14.40;;
52586;SDS011;38480;52.724;6.436;2022-10-01T00:14:33;41.23;;;21.20;;
52586;SDS011;38480;52.724;6.436;2022-10-01T00:17:02;21.80;;;15.33;;
52586;SDS011;38480;52.724;6.436;2022-10-01T00:19:28;23.33;;;16.37;;
52586;SDS011;38480;52.724;6.436;2022-10-01T00:21:54;33.00;;;19.97;;
52586;SDS011;38480;52.724;6.436;2022-10-01T00:24:20;23.90;;;16.10;;
52586;SDS011;38480;52.724;6.436;2022-10-01T00:26:46;28.83;;;19.70;;
52586;SDS011;38480;52.724;6.436;2022-10-01T00:29:13;24.33;;;17.20;;
52586;SDS011;38480;52.724;6.436;2022-10-01T00:31:39;31.57;;;19.80;;
52586;SDS011;38480;52.724;6.436;2022-10-01T00:34:05;29.27;;;19.53;;
52586;SDS011;38480;52.724;6.436;2022-10-01T00:36:31;31.60;;;18.53;;
52586;SDS011;38480;52.724;6.436;2022-10-01T00:38:58;39.03;;;20.80;;
52586;SDS011;38480;52.724;6.436;2022-10-01T00:41:28;29.23;;;18.60;;
52586;SDS011;38480;52.724;6.436;2022-10-01T00:43:56;24.23;;;17.23;;
52586;SDS011;38480;52.724;6.436;2022-10-01T00:46:35;26.00;;;17.67;;
52586;SDS011;38480;52.724;6.436;2022-10-01T00:49:06;31.27;;;19.77;;
52586;SDS011;38480;52.724;6.436;2022-10-01T00:51:35;28.83;;;19.37;;
52586;SDS011;38480;52.724;6.436;2022-10-01T00:54:07;28.93;;;19.63;;
52586;SDS011;38480;52.724;6.436;2022-10-01T00:56:35;25.63;;;16.37;;
52586;SDS011;38480;52.724;6.436;2022-10-01T00:59:02;29.87;;;19.93;;
52586;SDS011;38480;52.724;6.436;2022-10-01T01:01:29;37.47;;;20.17;;
52586;SDS011;38480;52.724;6.436;2022-10-01T01:03:55;38.23;;;22.70;;
52586;SDS011;38480;52.724;6.436;2022-10-01T01:06:21;31.80;;;19.77;;
52586;SDS011;38480;52.724;6.436;2022-10-01T01:08:48;36.13;;;20.30;;
52586;SDS011;38480;52.724;6.436;2022-10-01T01:11:23;25.67;;;16.67;;
52586;SDS011;38480;52.724;6.436;2022-10-01T01:14:12;30.90;;;20.97;;
52586;SDS011;38480;52.724;6.436;2022-10-01T01:16:43;29.37;;;19.57;;
52586;SDS011;38480;52.724;6.436;2022-10-01T01:19:27;32.73;;;20.77;;
52586;SDS011;38480;52.724;6.436;2022-10-01T01:22:00;31.73;;;20.07;;
52586;SDS011;38480;52.724;6.436;2022-10-01T01:27:23;35.27;;;21.57;;
52586;SDS011;38480;52.724;6.436;2022-10-01T01:29:56;29.10;;;18.70;;
52586;SDS011;38480;52.724;6.436;2022-10-01T01:33:13;27.93;;;18.53;;
52586;SDS011;38480;52.724;6.436;2022-10-01T01:35:19;0.60;;;0.60;;
52586;SDS011;38480;52.724;6.436;2022-10-01T01:37:49;3.67;;;0.70;;
52586;SDS011;38480;52.724;6.436;2022-10-01T01:40:15;30.70;;;19.97;;
52586;SDS011;38480;52.724;6.436;2022-10-01T01:42:42;30.50;;;19.80;;
52586;SDS011;38480;52.724;6.436;2022-10-01T01:45:10;30.43;;;19.33;;
52586;SDS011;38480;52.724;6.436;2022-10-01T01:47:38;40.77;;;21.80;;
52586;SDS011;38480;52.724;6.436;2022-10-01T01:50:06;30.60;;;19.23;;
52586;SDS011;38480;52.724;6.436;2022-10-01T01:52:32;31.50;;;19.30;;
52586;SDS011;38480;52.724;6.436;2022-10-01T01:54:58;33.37;;;19.17;;
52586;SDS011;38480;52.724;6.436;2022-10-01T01:57:32;0.80;;;0.80;;
52586;SDS011;38480;52.724;6.436;2022-10-01T01:59:59;0.57;;;0.57;;
52586;SDS011;38480;52.724;6.436;2022-10-01T02:02:26;0.30;;;0.30;;
52586;SDS011;38480;52.724;6.436;2022-10-01T02:04:55;31.23;;;17.47;;
52586;SDS011;38480;52.724;6.436;2022-10-01T02:07:58;27.33;;;16.83;;
52586;SDS011;38480;52.724;6.436;2022-10-01T02:15:12;21.10;;;11.73;;
52586;SDS011;38480;52.724;6.436;2022-10-01T02:20:28;30.97;;;19.70;;
52586;SDS011;38480;52.724;6.436;2022-10-01T02:22:57;23.77;;;17.03;;
52586;SDS011;38480;52.724;6.436;2022-10-01T02:25:25;24.27;;;16.57;;
52586;SDS011;38480;52.724;6.436;2022-10-01T02:28:06;28.33;;;18.87;;
52586;SDS011;38480;52.724;6.436;2022-10-01T02:30:34;27.13;;;17.37;;
52586;SDS011;38480;52.724;6.436;2022-10-01T02:33:02;35.00;;;21.13;;
52586;SDS011;38480;52.724;6.436;2022-10-01T02:35:30;22.17;;;15.63;;
52586;SDS011;38480;52.724;6.436;2022-10-01T02:37:56;24.50;;;17.13;;
52586;SDS011;38480;52.724;6.436;2022-10-01T02:40:24;26.67;;;17.60;;
52586;SDS011;38480;52.724;6.436;2022-10-01T02:42:56;17.97;;;14.77;;
52586;SDS011;38480;52.724;6.436;2022-10-01T02:45:24;21.20;;;15.50;;
52586;SDS011;38480;52.724;6.436;2022-10-01T02:48:12;19.57;;;14.23;;
52586;SDS011;38480;52.724;6.436;2022-10-01T02:50:54;21.20;;;14.50;;
52586;SDS011;38480;52.724;6.436;2022-10-01T02:53:34;24.10;;;15.70;;
52586;SDS011;38480;52.724;6.436;2022-10-01T02:56:02;20.47;;;14.17;;
52586;SDS011;38480;52.724;6.436;2022-10-01T02:58:29;20.73;;;13.83;;
52586;SDS011;38480;52.724;6.436;2022-10-01T03:00:55;17.93;;;13.20;;
52586;SDS011;38480;52.724;6.436;2022-10-01T03:03:21;21.00;;;14.43;;
52586;SDS011;38480;52.724;6.436;2022-10-01T03:05:50;17.73;;;12.53;;
52586;SDS011;38480;52.724;6.436;2022-10-01T03:08:16;18.10;;;12.67;;
52586;SDS011;38480;52.724;6.436;2022-10-01T03:10:43;21.80;;;14.10;;
52586;SDS011;38480;52.724;6.436;2022-10-01T03:13:09;18.70;;;13.17;;
52586;SDS011;38480;52.724;6.436;2022-10-01T03:15:35;23.47;;;15.53;;
52586;SDS011;38480;52.724;6.436;2022-10-01T03:18:01;24.03;;;14.30;;
52586;SDS011;38480;52.724;6.436;2022-10-01T03:20:27;17.00;;;12.90;;
52586;SDS011;38480;52.724;6.436;2022-10-01T03:22:53;16.37;;;11.67;;
52586;SDS011;38480;52.724;6.436;2022-10-01T03:25:19;16.10;;;11.57;;
52586;SDS011;38480;52.724;6.436;2022-10-01T03:27:45;17.80;;;11.80;;
52586;SDS011;38480;52.724;6.436;2022-10-01T03:30:12;20.93;;;14.23;;
52586;SDS011;38480;52.724;6.436;2022-10-01T03:32:38;25.07;;;14.67;;
52586;SDS011;38480;52.724;6.436;2022-10-01T03:35:04;18.07;;;13.00;;
52586;SDS011;38480;52.724;6.436;2022-10-01T03:37:30;17.73;;;11.97;;
52586;SDS011;38480;52.724;6.436;2022-10-01T03:39:56;15.50;;;12.03;;
52586;SDS011;38480;52.724;6.436;2022-10-01T03:42:22;23.80;;;13.83;;
52586;SDS011;38480;52.724;6.436;2022-10-01T03:44:48;17.17;;;12.03;;
52586;SDS011;38480;52.724;6.436;2022-10-01T03:47:14;15.93;;;11.03;;
52586;SDS011;38480;52.724;6.436;2022-10-01T03:49:40;14.77;;;11.33;;
52586;SDS011;38480;52.724;6.436;2022-10-01T03:52:06;17.80;;;10.77;;
52586;SDS011;38480;52.724;6.436;2022-10-01T03:54:32;16.73;;;11.63;;
52586;SDS011;38480;52.724;6.436;2022-10-01T03:56:58;16.07;;;11.43;;
52586;SDS011;38480;52.724;6.436;2022-10-01T03:59:24;14.83;;;11.03;;
52586;SDS011;38480;52.724;6.436;2022-10-01T04:01:51;11.17;;;8.63;;
52586;SDS011;38480;52.724;6.436;2022-10-01T04:04:18;14.17;;;9.77;;
52586;SDS011;38480;52.724;6.436;2022-10-01T04:06:44;14.33;;;9.67;;
52586;SDS011;38480;52.724;6.436;2022-10-01T04:09:10;18.43;;;11.50;;
52586;SDS011;38480;52.724;6.436;2022-10-01T04:11:36;15.13;;;10.87;;
52586;SDS011;38480;52.724;6.436;2022-10-01T04:14:03;13.43;;;10.17;;
52586;SDS011;38480;52.724;6.436;2022-10-01T04:16:29;17.60;;;11.53;;
52586;SDS011;38480;52.724;6.436;2022-10-01T04:18:58;13.17;;;8.53;;
52586;SDS011;38480;52.724;6.436;2022-10-01T04:21:24;9.83;;;7.43;;
52586;SDS011;38480;52.724;6.436;2022-10-01T04:23:50;9.07;;;7.10;;
52586;SDS011;38480;52.724;6.436;2022-10-01T04:26:17;11.93;;;8.17;;
52586;SDS011;38480;52.724;6.436;2022-10-01T04:28:43;9.03;;;7.53;;
52586;SDS011;38480;52.724;6.436;2022-10-01T04:31:11;10.50;;;7.50;;
52586;SDS011;38480;52.724;6.436;2022-10-01T04:33:49;10.53;;;7.50;;
52586;SDS011;38480;52.724;6.436;2022-10-01T04:36:15;11.03;;;7.93;;
52586;SDS011;38480;52.724;6.436;2022-10-01T04:38:41;10.67;;;8.73;;
52586;SDS011;38480;52.724;6.436;2022-10-01T04:41:07;16.70;;;8.47;;
52586;SDS011;38480;52.724;6.436;2022-10-01T04:43:34;10.87;;;8.13;;
52586;SDS011;38480;52.724;6.436;2022-10-01T04:46:00;10.23;;;7.77;;
52586;SDS011;38480;52.724;6.436;2022-10-01T04:48:26;8.80;;;7.07;;
52586;SDS011;38480;52.724;6.436;2022-10-01T04:50:52;11.27;;;7.53;;
52586;SDS011;38480;52.724;6.436;2022-10-01T04:53:18;11.03;;;7.87;;
52586;SDS011;38480;52.724;6.436;2022-10-01T04:55:44;10.07;;;8.27;;
52586;SDS011;38480;52.724;6.436;2022-10-01T04:58:10;11.63;;;7.60;;
52586;SDS011;38480;52.724;6.436;2022-10-01T05:00:36;10.03;;;8.63;;
52586;SDS011;38480;52.724;6.436;2022-10-01T05:03:02;11.47;;;7.83;;
52586;SDS011;38480;52.724;6.436;2022-10-01T05:05:29;10.00;;;7.97;;
52586;SDS011;38480;52.724;6.436;2022-10-01T05:07:57;11.03;;;8.07;;
52586;SDS011;38480;52.724;6.436;2022-10-01T05:10:23;10.97;;;7.87;;
52586;SDS011;38480;52.724;6.436;2022-10-01T05:12:49;13.87;;;9.87;;
52586;SDS011;38480;52.724;6.436;2022-10-01T05:15:16;9.20;;;7.57;;
52586;SDS011;38480;52.724;6.436;2022-10-01T05:17:42;10.17;;;9.00;;
52586;SDS011;38480;52.724;6.436;2022-10-01T05:20:09;10.37;;;8.90;;
52586;SDS011;38480;52.724;6.436;2022-10-01T05:22:39;14.27;;;9.73;;
52586;SDS011;38480;52.724;6.436;2022-10-01T05:25:05;13.07;;;9.47;;
52586;SDS011;38480;52.724;6.436;2022-10-01T05:27:31;10.97;;;9.27;;
52586;SDS011;38480;52.724;6.436;2022-10-01T05:30:02;12.27;;;10.07;;
52586;SDS011;38480;52.724;6.436;2022-10-01T05:32:28;14.87;;;10.90;;
52586;SDS011;38480;52.724;6.436;2022-10-01T05:34:55;15.47;;;11.17;;
52586;SDS011;38480;52.724;6.436;2022-10-01T05:37:21;12.30;;;10.37;;
52586;SDS011;38480;52.724;6.436;2022-10-01T05:39:48;13.40;;;10.30;;
52586;SDS011;38480;52.724;6.436;2022-10-01T05:42:14;13.83;;;12.03;;
52586;SDS011;38480;52.724;6.436;2022-10-01T05:44:40;14.57;;;12.17;;
52586;SDS011;38480;52.724;6.436;2022-10-01T05:47:10;11.97;;;10.77;;
52586;SDS011;38480;52.724;6.436;2022-10-01T05:49:37;14.87;;;11.17;;
52586;SDS011;38480;52.724;6.436;2022-10-01T05:52:06;16.43;;;11.80;;
52586;SDS011;38480;52.724;6.436;2022-10-01T05:54:34;13.50;;;11.87;;
52586;SDS011;38480;52.724;6.436;2022-10-01T05:57:00;17.87;;;13.67;;
52586;SDS011;38480;52.724;6.436;2022-10-01T05:59:26;17.97;;;14.00;;
52586;SDS011;38480;52.724;6.436;2022-10-01T06:01:52;15.63;;;12.07;;
52586;SDS011;38480;52.724;6.436;2022-10-01T06:04:18;20.30;;;16.17;;
52586;SDS011;38480;52.724;6.436;2022-10-01T06:06:44;19.80;;;14.87;;
52586;SDS011;38480;52.724;6.436;2022-10-01T06:09:11;21.87;;;15.43;;
52586;SDS011;38480;52.724;6.436;2022-10-01T06:11:37;19.30;;;16.13;;
52586;SDS011;38480;52.724;6.436;2022-10-01T06:14:03;18.07;;;14.80;;
52586;SDS011;38480;52.724;6.436;2022-10-01T06:16:30;23.47;;;17.50;;
52586;SDS011;38480;52.724;6.436;2022-10-01T06:18:56;18.47;;;14.70;;
52586;SDS011;38480;52.724;6.436;2022-10-01T06:21:25;23.37;;;18.13;;
52586;SDS011;38480;52.724;6.436;2022-10-01T06:23:52;16.20;;;13.80;;
52586;SDS011;38480;52.724;6.436;2022-10-01T06:26:18;19.17;;;15.70;;
52586;SDS011;38480;52.724;6.436;2022-10-01T06:28:47;24.30;;;18.10;;
52586;SDS011;38480;52.724;6.436;2022-10-01T06:31:13;18.87;;;15.97;;
52586;SDS011;38480;52.724;6.436;2022-10-01T06:33:40;21.70;;;16.17;;
52586;SDS011;38480;52.724;6.436;2022-10-01T06:36:06;21.83;;;18.03;;
52586;SDS011;38480;52.724;6.436;2022-10-01T06:38:32;21.77;;;16.90;;
52586;SDS011;38480;52.724;6.436;2022-10-01T06:40:58;25.30;;;19.20;;
52586;SDS011;38480;52.724;6.436;2022-10-01T06:43:25;23.43;;;19.20;;
52586;SDS011;38480;52.724;6.436;2022-10-01T06:45:52;25.83;;;19.17;;
52586;SDS011;38480;52.724;6.436;2022-10-01T06:48:18;23.57;;;17.93;;
52586;SDS011;38480;52.724;6.436;2022-10-01T06:50:45;25.20;;;19.33;;
52586;SDS011;38480;52.724;6.436;2022-10-01T06:53:12;35.27;;;22.03;;
52586;SDS011;38480;52.724;6.436;2022-10-01T06:55:38;24.10;;;18.17;;
52586;SDS011;38480;52.724;6.436;2022-10-01T06:58:09;25.27;;;17.23;;
52586;SDS011;38480;52.724;6.436;2022-10-01T07:00:37;21.60;;;17.65;;
52586;SDS011;38480;52.724;6.436;2022-10-01T07:03:04;21.90;;;16.60;;
52586;SDS011;38480;52.724;6.436;2022-10-01T07:05:34;28.23;;;20.30;;
52586;SDS011;38480;52.724;6.436;2022-10-01T07:08:00;24.73;;;18.03;;
52586;SDS011;38480;52.724;6.436;2022-10-01T07:10:26;20.27;;;15.53;;
52586;SDS011;38480;52.724;6.436;2022-10-01T07:12:52;18.33;;;13.93;;
52586;SDS011;38480;52.724;6.436;2022-10-01T07:15:19;23.23;;;17.03;;
52586;SDS011;38480;52.724;6.436;2022-10-01T07:17:47;22.97;;;16.23;;
52586;SDS011;38480;52.724;6.436;2022-10-01T07:20:14;22.67;;;15.03;;
52586;SDS011;38480;52.724;6.436;2022-10-01T07:22:42;19.70;;;14.90;;
52586;SDS011;38480;52.724;6.436;2022-10-01T07:25:08;25.07;;;17.37;;
52586;SDS011;38480;52.724;6.436;2022-10-01T07:27:35;22.20;;;16.03;;
52586;SDS011;38480;52.724;6.436;2022-10-01T07:30:01;21.20;;;15.60;;
52586;SDS011;38480;52.724;6.436;2022-10-01T07:32:27;31.97;;;18.97;;
52586;SDS011;38480;52.724;6.436;2022-10-01T07:34:55;17.37;;;13.60;;
52586;SDS011;38480;52.724;6.436;2022-10-01T07:37:22;13.60;;;12.30;;
52586;SDS011;38480;52.724;6.436;2022-10-01T07:39:48;18.60;;;14.30;;
52586;SDS011;38480;52.724;6.436;2022-10-01T07:42:14;20.63;;;14.77;;
52586;SDS011;38480;52.724;6.436;2022-10-01T07:44:40;14.83;;;12.00;;
52586;SDS011;38480;52.724;6.436;2022-10-01T07:47:07;16.90;;;12.53;;
52586;SDS011;38480;52.724;6.436;2022-10-01T07:49:33;20.93;;;10.77;;
52586;SDS011;38480;52.724;6.436;2022-10-01T07:51:59;14.80;;;10.20;;
52586;SDS011;38480;52.724;6.436;2022-10-01T07:54:25;17.43;;;8.67;;
52586;SDS011;38480;52.724;6.436;2022-10-01T07:56:51;15.13;;;8.17;;
52586;SDS011;38480;52.724;6.436;2022-10-01T07:59:23;16.53;;;7.73;;
52586;SDS011;38480;52.724;6.436;2022-10-01T08:01:51;18.17;;;6.63;;
52586;SDS011;38480;52.724;6.436;2022-10-01T08:04:17;17.53;;;7.20;;
52586;SDS011;38480;52.724;6.436;2022-10-01T08:07:02;13.47;;;5.60;;
52586;SDS011;38480;52.724;6.436;2022-10-01T08:09:29;19.23;;;6.63;;
52586;SDS011;38480;52.724;6.436;2022-10-01T08:11:55;16.20;;;4.30;;
52586;SDS011;38480;52.724;6.436;2022-10-01T08:14:21;14.13;;;6.00;;
52586;SDS011;38480;52.724;6.436;2022-10-01T08:16:48;15.00;;;4.53;;
52586;SDS011;38480;52.724;6.436;2022-10-01T08:19:14;12.17;;;5.53;;
52586;SDS011;38480;52.724;6.436;2022-10-01T08:21:40;11.90;;;4.03;;
52586;SDS011;38480;52.724;6.436;2022-10-01T08:24:06;12.03;;;4.10;;
52586;SDS011;38480;52.724;6.436;2022-10-01T08:26:33;16.10;;;3.80;;
52586;SDS011;38480;52.724;6.436;2022-10-01T08:28:59;8.87;;;3.40;;
52586;SDS011;38480;52.724;6.436;2022-10-01T08:31:25;13.40;;;2.90;;
52586;SDS011;38480;52.724;6.436;2022-10-01T08:33:51;12.00;;;2.87;;
52586;SDS011;38480;52.724;6.436;2022-10-01T08:36:18;7.97;;;2.67;;
52586;SDS011;38480;52.724;6.436;2022-10-01T08:38:44;24.57;;;5.47;;
52586;SDS011;38480;52.724;6.436;2022-10-01T08:43:56;8.20;;;2.63;;
52586;SDS011;38480;52.724;6.436;2022-10-01T08:46:23;13.20;;;3.03;;
52586;SDS011;38480;52.724;6.436;2022-10-01T08:49:15;9.07;;;2.50;;
52586;SDS011;38480;52.724;6.436;2022-10-01T08:51:44;12.07;;;2.50;;
52586;SDS011;38480;52.724;6.436;2022-10-01T08:56:57;14.77;;;3.47;;
52586;SDS011;38480;52.724;6.436;2022-10-01T08:59:28;13.50;;;2.80;;
52586;SDS011;38480;52.724;6.436;2022-10-01T09:01:57;13.00;;;2.67;;
52586;SDS011;38480;52.724;6.436;2022-10-01T09:04:23;10.73;;;1.90;;
52586;SDS011;38480;52.724;6.436;2022-10-01T09:06:51;11.23;;;1.90;;
52586;SDS011;38480;52.724;6.436;2022-10-01T09:17:08;5.53;;;1.17;;
52586;SDS011;38480;52.724;6.436;2022-10-01T09:22:10;10.67;;;1.47;;
52586;SDS011;38480;52.724;6.436;2022-10-01T09:27:13;5.77;;;1.03;;
52586;SDS011;38480;52.724;6.436;2022-10-01T09:29:45;7.10;;;1.50;;
52586;SDS011;38480;52.724;6.436;2022-10-01T09:34:40;6.77;;;1.20;;
52586;SDS011;38480;52.724;6.436;2022-10-01T09:42:17;5.87;;;1.00;;
52586;SDS011;38480;52.724;6.436;2022-10-01T09:44:43;7.07;;;0.80;;
52586;SDS011;38480;52.724;6.436;2022-10-01T09:47:15;3.67;;;1.07;;
52586;SDS011;38480;52.724;6.436;2022-10-01T09:49:41;4.23;;;1.10;;
52586;SDS011;38480;52.724;6.436;2022-10-01T09:52:29;3.67;;;0.90;;
52586;SDS011;38480;52.724;6.436;2022-10-01T09:55:41;4.23;;;0.90;;
52586;SDS011;38480;52.724;6.436;2022-10-01T09:57:49;4.93;;;1.10;;
52586;SDS011;38480;52.724;6.436;2022-10-01T10:00:18;5.10;;;1.13;;
52586;SDS011;38480;52.724;6.436;2022-10-01T10:02:48;5.93;;;1.10;;
52586;SDS011;38480;52.724;6.436;2022-10-01T10:05:15;7.17;;;1.27;;
52586;SDS011;38480;52.724;6.436;2022-10-01T10:07:43;6.80;;;1.50;;
52586;SDS011;38480;52.724;6.436;2022-10-01T10:10:23;7.93;;;1.47;;
52586;SDS011;38480;52.724;6.436;2022-10-01T10:12:55;10.90;;;1.80;;
52586;SDS011;38480;52.724;6.436;2022-10-01T10:15:22;10.47;;;2.50;;
52586;SDS011;38480;52.724;6.436;2022-10-01T10:17:50;7.20;;;1.80;;
52586;SDS011;38480;52.724;6.436;2022-10-01T10:20:39;8.97;;;2.10;;
52586;SDS011;38480;52.724;6.436;2022-10-01T10:25:42;10.20;;;2.00;;
52586;SDS011;38480;52.724;6.436;2022-10-01T10:28:18;9.53;;;2.80;;
52586;SDS011;38480;52.724;6.436;2022-10-01T10:30:45;10.53;;;2.87;;
52586;SDS011;38480;52.724;6.436;2022-10-01T10:33:11;11.10;;;1.97;;
52586;SDS011;38480;52.724;6.436;2022-10-01T10:35:38;9.33;;;2.30;;
52586;SDS011;38480;52.724;6.436;2022-10-01T10:38:04;14.70;;;2.47;;
52586;SDS011;38480;52.724;6.436;2022-10-01T10:40:33;9.07;;;2.67;;
52586;SDS011;38480;52.724;6.436;2022-10-01T10:43:04;9.93;;;2.00;;
52586;SDS011;38480;52.724;6.436;2022-10-01T10:45:31;8.63;;;2.03;;
52586;SDS011;38480;52.724;6.436;2022-10-01T10:48:00;12.37;;;3.00;;
52586;SDS011;38480;52.724;6.436;2022-10-01T10:50:32;16.40;;;2.80;;
52586;SDS011;38480;52.724;6.436;2022-10-01T10:52:58;11.70;;;2.93;;
52586;SDS011;38480;52.724;6.436;2022-10-01T10:55:27;5.17;;;1.37;;
52586;SDS011;38480;52.724;6.436;2022-10-01T10:57:54;5.47;;;1.33;;
52586;SDS011;38480;52.724;6.436;2022-10-01T11:00:22;8.50;;;1.80;;
52586;SDS011;38480;52.724;6.436;2022-10-01T11:02:55;7.03;;;1.20;;
52586;SDS011;38480;52.724;6.436;2022-10-01T11:05:23;8.10;;;1.20;;
52586;SDS011;38480;52.724;6.436;2022-10-01T11:07:55;10.27;;;1.43;;
52586;SDS011;38480;52.724;6.436;2022-10-01T11:10:24;6.10;;;1.40;;
52586;SDS011;38480;52.724;6.436;2022-10-01T11:13:06;12.33;;;1.70;;
52586;SDS011;38480;52.724;6.436;2022-10-01T11:25:49;12.03;;;2.40;;
52586;SDS011;38480;52.724;6.436;2022-10-01T11:36:23;15.77;;;2.50;;
52586;SDS011;38480;52.724;6.436;2022-10-01T11:38:55;10.57;;;2.40;;
52586;SDS011;38480;52.724;6.436;2022-10-01T11:41:41;10.33;;;2.20;;
52586;SDS011;38480;52.724;6.436;2022-10-01T11:49:15;11.90;;;2.33;;
52586;SDS011;38480;52.724;6.436;2022-10-01T11:51:45;8.95;;;1.65;;
52586;SDS011;38480;52.724;6.436;2022-10-01T11:54:13;10.20;;;1.80;;
52586;SDS011;38480;52.724;6.436;2022-10-01T11:56:42;15.43;;;2.57;;
52586;SDS011;38480;52.724;6.436;2022-10-01T11:59:33;58.63;;;7.10;;
52586;SDS011;38480;52.724;6.436;2022-10-01T12:05:00;14.80;;;2.93;;
52586;SDS011;38480;52.724;6.436;2022-10-01T12:07:38;15.53;;;3.40;;
52586;SDS011;38480;52.724;6.436;2022-10-01T12:12:57;15.57;;;3.27;;
52586;SDS011;38480;52.724;6.436;2022-10-01T12:17:54;11.90;;;2.47;;
52586;SDS011;38480;52.724;6.436;2022-10-01T12:22:49;21.30;;;2.83;;
52586;SDS011;38480;52.724;6.436;2022-10-01T12:25:16;32.83;;;3.60;;
52586;SDS011;38480;52.724;6.436;2022-10-01T12:30:15;13.77;;;2.70;;
52586;SDS011;38480;52.724;6.436;2022-10-01T12:33:01;12.87;;;2.90;;
52586;SDS011;38480;52.724;6.436;2022-10-01T12:48:24;15.80;;;2.60;;
52586;SDS011;38480;52.724;6.436;2022-10-01T12:50:57;12.15;;;2.67;;
52586;SDS011;38480;52.724;6.436;2022-10-01T12:53:36;19.70;;;3.43;;
52586;SDS011;38480;52.724;6.436;2022-10-01T12:58:43;17.03;;;3.13;;
52586;SDS011;38480;52.724;6.436;2022-10-01T13:04:03;18.13;;;3.10;;
52586;SDS011;38480;52.724;6.436;2022-10-01T13:06:34;18.30;;;2.88;;
52586;SDS011;38480;52.724;6.436;2022-10-01T13:09:08;12.43;;;2.45;;
52586;SDS011;38480;52.724;6.436;2022-10-01T13:14:03;14.87;;;2.87;;
52586;SDS011;38480;52.724;6.436;2022-10-01T13:16:39;10.90;;;2.30;;
52586;SDS011;38480;52.724;6.436;2022-10-01T13:24:28;12.03;;;2.13;;
52586;SDS011;38480;52.724;6.436;2022-10-01T13:32:03;13.17;;;2.13;;
52586;SDS011;38480;52.724;6.436;2022-10-01T13:34:45;11.63;;;2.00;;
52586;SDS011;38480;52.724;6.436;2022-10-01T13:39:56;18.97;;;2.93;;
52586;SDS011;38480;52.724;6.436;2022-10-01T13:42:23;13.03;;;2.20;;
52586;SDS011;38480;52.724;6.436;2022-10-01T13:45:00;15.70;;;2.93;;
52586;SDS011;38480;52.724;6.436;2022-10-01T13:47:28;11.37;;;2.50;;
52586;SDS011;38480;52.724;6.436;2022-10-01T13:49:56;13.37;;;2.10;;
52586;SDS011;38480;52.724;6.436;2022-10-01T13:52:24;12.17;;;2.97;;
52586;SDS011;38480;52.724;6.436;2022-10-01T13:54:51;13.63;;;2.00;;
52586;SDS011;38480;52.724;6.436;2022-10-01T13:57:26;13.03;;;3.20;;
52586;SDS011;38480;52.724;6.436;2022-10-01T14:02:32;16.77;;;2.80;;
52586;SDS011;38480;52.724;6.436;2022-10-01T14:07:34;13.90;;;2.30;;
52586;SDS011;38480;52.724;6.436;2022-10-01T14:10:02;16.20;;;2.67;;
52586;SDS011;38480;52.724;6.436;2022-10-01T14:12:30;12.87;;;3.17;;
52586;SDS011;38480;52.724;6.436;2022-10-01T14:15:16;12.90;;;3.07;;
52586;SDS011;38480;52.724;6.436;2022-10-01T14:18:07;14.13;;;2.67;;
52586;SDS011;38480;52.724;6.436;2022-10-01T14:20:37;13.37;;;2.40;;
52586;SDS011;38480;52.724;6.436;2022-10-01T14:23:12;17.27;;;3.20;;
52586;SDS011;38480;52.724;6.436;2022-10-01T14:33:15;12.67;;;2.97;;
52586;SDS011;38480;52.724;6.436;2022-10-01T14:35:55;13.53;;;2.20;;
52586;SDS011;38480;52.724;6.436;2022-10-01T14:38:23;15.67;;;3.20;;
52586;SDS011;38480;52.724;6.436;2022-10-01T14:40:49;14.77;;;2.87;;
52586;SDS011;38480;52.724;6.436;2022-10-01T14:43:24;10.00;;;2.10;;
52586;SDS011;38480;52.724;6.436;2022-10-01T14:46:00;12.57;;;2.43;;
52586;SDS011;38480;52.724;6.436;2022-10-01T14:48:27;16.60;;;3.30;;
52586;SDS011;38480;52.724;6.436;2022-10-01T14:50:55;12.90;;;2.63;;
52586;SDS011;38480;52.724;6.436;2022-10-01T14:53:22;14.80;;;3.60;;
52586;SDS011;38480;52.724;6.436;2022-10-01T14:55:49;13.40;;;2.43;;
52586;SDS011;38480;52.724;6.436;2022-10-01T14:58:20;11.60;;;2.27;;
52586;SDS011;38480;52.724;6.436;2022-10-01T15:00:50;15.87;;;2.63;;
52586;SDS011;38480;52.724;6.436;2022-10-01T15:03:16;17.13;;;3.10;;
52586;SDS011;38480;52.724;6.436;2022-10-01T15:05:43;12.67;;;2.67;;
52586;SDS011;38480;52.724;6.436;2022-10-01T15:08:11;18.90;;;2.73;;
52586;SDS011;38480;52.724;6.436;2022-10-01T15:11:00;16.30;;;2.97;;
52586;SDS011;38480;52.724;6.436;2022-10-01T15:13:43;16.13;;;2.93;;
52586;SDS011;38480;52.724;6.436;2022-10-01T15:16:18;13.63;;;2.60;;
52586;SDS011;38480;52.724;6.436;2022-10-01T15:18:52;21.40;;;3.83;;
52586;SDS011;38480;52.724;6.436;2022-10-01T15:21:28;14.00;;;2.67;;
52586;SDS011;38480;52.724;6.436;2022-10-01T15:23:55;17.27;;;3.23;;
52586;SDS011;38480;52.724;6.436;2022-10-01T15:26:23;12.10;;;2.03;;
52586;SDS011;38480;52.724;6.436;2022-10-01T15:29:00;15.97;;;2.63;;
52586;SDS011;38480;52.724;6.436;2022-10-01T15:31:27;11.23;;;2.60;;
52586;SDS011;38480;52.724;6.436;2022-10-01T15:33:53;15.40;;;2.40;;
52586;SDS011;38480;52.724;6.436;2022-10-01T15:36:19;19.10;;;2.50;;
52586;SDS011;38480;52.724;6.436;2022-10-01T15:38:45;16.80;;;2.80;;
52586;SDS011;38480;52.724;6.436;2022-10-01T15:41:20;21.27;;;3.50;;
52586;SDS011;38480;52.724;6.436;2022-10-01T15:43:47;12.27;;;2.33;;
52586;SDS011;38480;52.724;6.436;2022-10-01T15:48:43;16.13;;;3.13;;
52586;SDS011;38480;52.724;6.436;2022-10-01T15:53:38;12.80;;;2.50;;
52586;SDS011;38480;52.724;6.436;2022-10-01T15:56:08;13.97;;;3.10;;
52586;SDS011;38480;52.724;6.436;2022-10-01T15:58:35;17.27;;;2.83;;
52586;SDS011;38480;52.724;6.436;2022-10-01T16:01:09;13.90;;;2.60;;
52586;SDS011;38480;52.724;6.436;2022-10-01T16:03:37;15.83;;;2.87;;
52586;SDS011;38480;52.724;6.436;2022-10-01T16:06:05;11.03;;;2.00;;
52586;SDS011;38480;52.724;6.436;2022-10-01T16:08:33;16.73;;;2.77;;
52586;SDS011;38480;52.724;6.436;2022-10-01T16:13:38;17.27;;;2.83;;
52586;SDS011;38480;52.724;6.436;2022-10-01T16:16:19;15.33;;;3.20;;
52586;SDS011;38480;52.724;6.436;2022-10-01T16:18:46;15.33;;;2.77;;
52586;SDS011;38480;52.724;6.436;2022-10-01T16:21:16;13.40;;;3.20;;
52586;SDS011;38480;52.724;6.436;2022-10-01T16:23:44;13.90;;;2.67;;
52586;SDS011;38480;52.724;6.436;2022-10-01T16:31:36;12.00;;;2.60;;
52586;SDS011;38480;52.724;6.436;2022-10-01T16:34:08;11.20;;;2.07;;
52586;SDS011;38480;52.724;6.436;2022-10-01T16:36:35;22.73;;;4.47;;
52586;SDS011;38480;52.724;6.436;2022-10-01T16:39:02;11.93;;;2.40;;
52586;SDS011;38480;52.724;6.436;2022-10-01T16:41:30;14.87;;;2.53;;
52586;SDS011;38480;52.724;6.436;2022-10-01T16:43:58;19.70;;;3.87;;
52586;SDS011;38480;52.724;6.436;2022-10-01T16:46:24;15.93;;;2.70;;
52586;SDS011;38480;52.724;6.436;2022-10-01T16:48:50;15.87;;;2.83;;
52586;SDS011;38480;52.724;6.436;2022-10-01T16:51:17;16.53;;;3.90;;
52586;SDS011;38480;52.724;6.436;2022-10-01T16:53:43;11.83;;;2.57;;
52586;SDS011;38480;52.724;6.436;2022-10-01T16:56:10;19.03;;;3.33;;
52586;SDS011;38480;52.724;6.436;2022-10-01T16:58:36;21.00;;;3.53;;